sensor_id;sensor_type;location;lat;lon;timestamp;P1;durP1;ratioP1;P2;durP2;ratioP2
4698;SDS011;33708;49.466;11.176;2023-08-06T00:02:13;4.03;;;3.20;;
4698;SDS011;33708;49.466;11.176;2023-08-06T00:04:38;5.77;;;4.00;;
4698;SDS011;33708;49.466;11.176;2023-08-06T00:07:04;5.57;;;3.23;;
4698;SDS011;33708;49.466;11.176;2023-08-06T00:09:30;7.00;;;3.60;;
4698;SDS011;33708;49.466;11.176;2023-08-06T00:11:55;4.13;;;3.10;;
4698;SDS011;33708;49.466;11.176;2023-08-06T00:14:21;6.73;;;3.00;;
4698;SDS011;33708;49.466;11.176;2023-08-06T00:16:47;8.83;;;3.60;;
4698;SDS011;33708;49.466;11.176;2023-08-06T00:19:12;4.93;;;3.27;;
4698;SDS011;33708;49.466;11.176;2023-08-06T00:21:38;6.47;;;3.97;;
4698;SDS011;33708;49.466;11.176;2023-08-06T00:24:04;5.13;;;3.13;;
4698;SDS011;33708;49.466;11.176;2023-08-06T00:26:29;7.40;;;3.40;;
4698;SDS011;33708;49.466;11.176;2023-08-06T00:28:55;9.60;;;3.60;;
4698;SDS011;33708;49.466;11.176;2023-08-06T00:31:20;5.20;;;3.70;;
4698;SDS011;33708;49.466;11.176;2023-08-06T00:33:46;9.23;;;3.73;;
4698;SDS011;33708;49.466;11.176;2023-08-06T00:36:11;7.23;;;3.73;;
4698;SDS011;33708;49.466;11.176;2023-08-06T00:38:37;4.77;;;3.00;;
4698;SDS011;33708;49.466;11.176;2023-08-06T00:41:03;5.07;;;3.57;;
4698;SDS011;33708;49.466;11.176;2023-08-06T00:43:28;4.83;;;3.30;;
4698;SDS011;33708;49.466;11.176;2023-08-06T00:45:54;4.83;;;3.57;;
4698;SDS011;33708;49.466;11.176;2023-08-06T00:48:20;6.30;;;3.50;;
4698;SDS011;33708;49.466;11.176;2023-08-06T00:50:46;8.33;;;3.90;;
4698;SDS011;33708;49.466;11.176;2023-08-06T00:53:12;4.60;;;3.40;;
4698;SDS011;33708;49.466;11.176;2023-08-06T00:55:38;5.30;;;4.03;;
4698;SDS011;33708;49.466;11.176;2023-08-06T00:58:04;7.03;;;3.50;;
4698;SDS011;33708;49.466;11.176;2023-08-06T01:00:30;5.13;;;3.23;;
4698;SDS011;33708;49.466;11.176;2023-08-06T01:02:56;5.27;;;3.67;;
4698;SDS011;33708;49.466;11.176;2023-08-06T01:05:22;4.57;;;3.47;;
4698;SDS011;33708;49.466;11.176;2023-08-06T01:11:11;8.10;;;4.13;;
4698;SDS011;33708;49.466;11.176;2023-08-06T01:13:42;5.60;;;3.37;;
4698;SDS011;33708;49.466;11.176;2023-08-06T01:16:15;6.77;;;4.30;;
4698;SDS011;33708;49.466;11.176;2023-08-06T01:18:43;5.70;;;3.57;;
4698;SDS011;33708;49.466;11.176;2023-08-06T01:21:14;8.00;;;3.20;;
4698;SDS011;33708;49.466;11.176;2023-08-06T01:23:43;8.13;;;3.80;;
4698;SDS011;33708;49.466;11.176;2023-08-06T01:31:39;7.30;;;3.40;;
4698;SDS011;33708;49.466;11.176;2023-08-06T01:34:09;5.60;;;3.57;;
4698;SDS011;33708;49.466;11.176;2023-08-06T01:36:40;5.70;;;3.70;;
4698;SDS011;33708;49.466;11.176;2023-08-06T01:39:06;8.30;;;3.50;;
4698;SDS011;33708;49.466;11.176;2023-08-06T01:41:32;6.30;;;3.17;;
4698;SDS011;33708;49.466;11.176;2023-08-06T01:43:58;7.90;;;3.87;;
4698;SDS011;33708;49.466;11.176;2023-08-06T01:46:23;4.80;;;3.70;;
4698;SDS011;33708;49.466;11.176;2023-08-06T01:48:49;6.27;;;3.83;;
4698;SDS011;33708;49.466;11.176;2023-08-06T01:51:14;5.70;;;3.30;;
4698;SDS011;33708;49.466;11.176;2023-08-06T01:53:40;9.00;;;4.37;;
4698;SDS011;33708;49.466;11.176;2023-08-06T01:56:06;8.93;;;3.53;;
4698;SDS011;33708;49.466;11.176;2023-08-06T01:58:31;8.43;;;3.67;;
4698;SDS011;33708;49.466;11.176;2023-08-06T02:00:57;5.47;;;3.23;;
4698;SDS011;33708;49.466;11.176;2023-08-06T02:03:22;5.60;;;3.77;;
4698;SDS011;33708;49.466;11.176;2023-08-06T02:05:48;4.93;;;3.60;;
4698;SDS011;33708;49.466;11.176;2023-08-06T02:08:14;5.17;;;3.67;;
4698;SDS011;33708;49.466;11.176;2023-08-06T02:10:39;4.83;;;3.73;;
4698;SDS011;33708;49.466;11.176;2023-08-06T02:13:06;6.13;;;4.47;;
4698;SDS011;33708;49.466;11.176;2023-08-06T02:15:32;8.50;;;3.90;;
4698;SDS011;33708;49.466;11.176;2023-08-06T02:17:57;5.60;;;3.10;;
4698;SDS011;33708;49.466;11.176;2023-08-06T02:20:23;4.73;;;3.60;;
4698;SDS011;33708;49.466;11.176;2023-08-06T02:22:48;6.10;;;3.83;;
4698;SDS011;33708;49.466;11.176;2023-08-06T02:25:14;5.83;;;3.23;;
4698;SDS011;33708;49.466;11.176;2023-08-06T02:27:39;5.90;;;3.57;;
4698;SDS011;33708;49.466;11.176;2023-08-06T02:30:05;4.00;;;3.30;;
4698;SDS011;33708;49.466;11.176;2023-08-06T02:32:31;4.43;;;3.20;;
4698;SDS011;33708;49.466;11.176;2023-08-06T02:34:58;4.20;;;3.30;;
4698;SDS011;33708;49.466;11.176;2023-08-06T02:37:23;6.23;;;3.40;;
4698;SDS011;33708;49.466;11.176;2023-08-06T02:39:49;4.90;;;3.30;;
4698;SDS011;33708;49.466;11.176;2023-08-06T02:42:15;6.80;;;3.43;;
4698;SDS011;33708;49.466;11.176;2023-08-06T02:44:40;7.23;;;3.67;;
4698;SDS011;33708;49.466;11.176;2023-08-06T02:47:06;5.43;;;3.70;;
4698;SDS011;33708;49.466;11.176;2023-08-06T02:49:31;10.13;;;3.40;;
4698;SDS011;33708;49.466;11.176;2023-08-06T02:51:57;7.60;;;4.20;;
4698;SDS011;33708;49.466;11.176;2023-08-06T02:54:23;8.70;;;4.37;;
4698;SDS011;33708;49.466;11.176;2023-08-06T02:56:48;5.30;;;3.20;;
4698;SDS011;33708;49.466;11.176;2023-08-06T02:59:15;10.10;;;4.13;;
4698;SDS011;33708;49.466;11.176;2023-08-06T03:01:40;6.37;;;3.43;;
4698;SDS011;33708;49.466;11.176;2023-08-06T03:04:06;11.50;;;4.23;;
4698;SDS011;33708;49.466;11.176;2023-08-06T03:06:32;6.40;;;4.00;;
4698;SDS011;33708;49.466;11.176;2023-08-06T03:08:58;4.50;;;3.43;;
4698;SDS011;33708;49.466;11.176;2023-08-06T03:11:23;4.50;;;3.10;;
4698;SDS011;33708;49.466;11.176;2023-08-06T03:13:49;8.50;;;3.90;;
4698;SDS011;33708;49.466;11.176;2023-08-06T03:16:15;4.90;;;2.97;;
4698;SDS011;33708;49.466;11.176;2023-08-06T03:18:40;3.97;;;3.07;;
4698;SDS011;33708;49.466;11.176;2023-08-06T03:21:06;9.30;;;3.23;;
4698;SDS011;33708;49.466;11.176;2023-08-06T03:23:32;6.20;;;3.57;;
4698;SDS011;33708;49.466;11.176;2023-08-06T03:26:01;5.73;;;3.00;;
4698;SDS011;33708;49.466;11.176;2023-08-06T03:28:27;4.30;;;2.70;;
4698;SDS011;33708;49.466;11.176;2023-08-06T03:31:02;5.80;;;3.20;;
4698;SDS011;33708;49.466;11.176;2023-08-06T03:33:28;7.40;;;3.17;;
4698;SDS011;33708;49.466;11.176;2023-08-06T03:35:54;3.60;;;2.97;;
4698;SDS011;33708;49.466;11.176;2023-08-06T03:38:20;5.10;;;3.13;;
4698;SDS011;33708;49.466;11.176;2023-08-06T03:40:46;4.47;;;3.00;;
4698;SDS011;33708;49.466;11.176;2023-08-06T03:43:12;6.97;;;3.60;;
4698;SDS011;33708;49.466;11.176;2023-08-06T03:45:37;4.50;;;3.10;;
4698;SDS011;33708;49.466;11.176;2023-08-06T03:48:03;4.43;;;2.97;;
4698;SDS011;33708;49.466;11.176;2023-08-06T03:50:29;4.80;;;2.90;;
4698;SDS011;33708;49.466;11.176;2023-08-06T03:52:54;4.93;;;2.80;;
4698;SDS011;33708;49.466;11.176;2023-08-06T03:55:20;6.20;;;3.03;;
4698;SDS011;33708;49.466;11.176;2023-08-06T03:57:46;5.87;;;3.50;;
4698;SDS011;33708;49.466;11.176;2023-08-06T04:00:12;4.60;;;2.70;;
4698;SDS011;33708;49.466;11.176;2023-08-06T04:02:38;4.47;;;3.13;;
4698;SDS011;33708;49.466;11.176;2023-08-06T04:05:03;5.07;;;3.20;;
4698;SDS011;33708;49.466;11.176;2023-08-06T04:07:29;4.93;;;3.20;;
4698;SDS011;33708;49.466;11.176;2023-08-06T04:09:56;7.20;;;3.60;;
4698;SDS011;33708;49.466;11.176;2023-08-06T04:12:26;7.10;;;3.47;;
4698;SDS011;33708;49.466;11.176;2023-08-06T04:14:52;7.33;;;3.53;;
4698;SDS011;33708;49.466;11.176;2023-08-06T04:17:19;5.03;;;3.43;;
4698;SDS011;33708;49.466;11.176;2023-08-06T04:19:52;5.53;;;3.33;;
4698;SDS011;33708;49.466;11.176;2023-08-06T04:22:19;4.93;;;3.10;;
4698;SDS011;33708;49.466;11.176;2023-08-06T04:24:45;6.30;;;3.00;;
4698;SDS011;33708;49.466;11.176;2023-08-06T04:27:11;4.70;;;3.10;;
4698;SDS011;33708;49.466;11.176;2023-08-06T04:29:37;8.30;;;3.30;;
4698;SDS011;33708;49.466;11.176;2023-08-06T04:32:03;4.20;;;3.20;;
4698;SDS011;33708;49.466;11.176;2023-08-06T04:34:33;4.40;;;3.07;;
4698;SDS011;33708;49.466;11.176;2023-08-06T04:37:00;5.47;;;3.10;;
4698;SDS011;33708;49.466;11.176;2023-08-06T04:39:26;6.83;;;3.20;;
4698;SDS011;33708;49.466;11.176;2023-08-06T04:41:51;4.97;;;2.80;;
4698;SDS011;33708;49.466;11.176;2023-08-06T04:44:17;8.93;;;3.30;;
4698;SDS011;33708;49.466;11.176;2023-08-06T04:46:43;4.90;;;3.00;;
4698;SDS011;33708;49.466;11.176;2023-08-06T04:49:08;5.33;;;2.73;;
4698;SDS011;33708;49.466;11.176;2023-08-06T04:51:34;5.70;;;3.30;;
4698;SDS011;33708;49.466;11.176;2023-08-06T04:54:00;3.87;;;2.87;;
4698;SDS011;33708;49.466;11.176;2023-08-06T04:56:26;9.43;;;2.93;;
4698;SDS011;33708;49.466;11.176;2023-08-06T04:58:51;4.67;;;3.23;;
4698;SDS011;33708;49.466;11.176;2023-08-06T05:01:17;4.67;;;2.90;;
4698;SDS011;33708;49.466;11.176;2023-08-06T05:03:43;3.40;;;2.80;;
4698;SDS011;33708;49.466;11.176;2023-08-06T05:06:08;10.30;;;3.00;;
4698;SDS011;33708;49.466;11.176;2023-08-06T05:08:34;4.43;;;2.80;;
4698;SDS011;33708;49.466;11.176;2023-08-06T05:11:00;5.20;;;2.50;;
4698;SDS011;33708;49.466;11.176;2023-08-06T05:13:25;4.23;;;2.97;;
4698;SDS011;33708;49.466;11.176;2023-08-06T05:15:53;6.53;;;3.00;;
4698;SDS011;33708;49.466;11.176;2023-08-06T05:18:19;4.27;;;2.40;;
4698;SDS011;33708;49.466;11.176;2023-08-06T05:20:44;5.37;;;3.30;;
4698;SDS011;33708;49.466;11.176;2023-08-06T05:23:10;7.50;;;2.93;;
4698;SDS011;33708;49.466;11.176;2023-08-06T05:25:36;6.00;;;2.77;;
4698;SDS011;33708;49.466;11.176;2023-08-06T05:28:02;4.57;;;2.20;;
4698;SDS011;33708;49.466;11.176;2023-08-06T05:30:28;4.97;;;2.20;;
4698;SDS011;33708;49.466;11.176;2023-08-06T05:32:54;6.80;;;2.07;;
4698;SDS011;33708;49.466;11.176;2023-08-06T05:35:20;4.07;;;2.20;;
4698;SDS011;33708;49.466;11.176;2023-08-06T05:37:47;7.20;;;2.40;;
4698;SDS011;33708;49.466;11.176;2023-08-06T05:40:12;4.10;;;2.27;;
4698;SDS011;33708;49.466;11.176;2023-08-06T05:42:39;3.27;;;2.20;;
4698;SDS011;33708;49.466;11.176;2023-08-06T05:45:05;4.30;;;2.50;;
4698;SDS011;33708;49.466;11.176;2023-08-06T05:47:31;3.27;;;1.87;;
4698;SDS011;33708;49.466;11.176;2023-08-06T05:49:57;2.87;;;1.80;;
4698;SDS011;33708;49.466;11.176;2023-08-06T05:52:22;3.67;;;2.30;;
4698;SDS011;33708;49.466;11.176;2023-08-06T05:54:48;3.30;;;2.20;;
4698;SDS011;33708;49.466;11.176;2023-08-06T05:57:13;9.90;;;2.90;;
4698;SDS011;33708;49.466;11.176;2023-08-06T05:59:40;6.97;;;2.97;;
4698;SDS011;33708;49.466;11.176;2023-08-06T06:02:06;7.10;;;2.90;;
4698;SDS011;33708;49.466;11.176;2023-08-06T06:04:31;5.30;;;2.87;;
4698;SDS011;33708;49.466;11.176;2023-08-06T06:06:57;3.40;;;2.20;;
4698;SDS011;33708;49.466;11.176;2023-08-06T06:09:22;6.10;;;2.50;;
4698;SDS011;33708;49.466;11.176;2023-08-06T06:11:48;6.17;;;2.50;;
4698;SDS011;33708;49.466;11.176;2023-08-06T06:14:15;4.33;;;2.80;;
4698;SDS011;33708;49.466;11.176;2023-08-06T06:16:41;6.73;;;2.63;;
4698;SDS011;33708;49.466;11.176;2023-08-06T06:19:07;4.70;;;2.50;;
4698;SDS011;33708;49.466;11.176;2023-08-06T06:21:32;4.57;;;2.63;;
4698;SDS011;33708;49.466;11.176;2023-08-06T06:23:58;5.03;;;2.40;;
4698;SDS011;33708;49.466;11.176;2023-08-06T06:26:23;3.50;;;2.27;;
4698;SDS011;33708;49.466;11.176;2023-08-06T06:28:49;7.20;;;2.67;;
4698;SDS011;33708;49.466;11.176;2023-08-06T06:31:14;6.13;;;2.03;;
4698;SDS011;33708;49.466;11.176;2023-08-06T06:33:40;5.30;;;2.83;;
4698;SDS011;33708;49.466;11.176;2023-08-06T06:36:05;5.73;;;2.50;;
4698;SDS011;33708;49.466;11.176;2023-08-06T06:38:32;4.53;;;1.97;;
4698;SDS011;33708;49.466;11.176;2023-08-06T06:40:58;10.47;;;2.50;;
4698;SDS011;33708;49.466;11.176;2023-08-06T06:43:24;5.43;;;2.10;;
4698;SDS011;33708;49.466;11.176;2023-08-06T06:45:53;5.00;;;2.97;;
4698;SDS011;33708;49.466;11.176;2023-08-06T06:48:22;4.53;;;2.60;;
4698;SDS011;33708;49.466;11.176;2023-08-06T06:50:48;4.10;;;2.57;;
4698;SDS011;33708;49.466;11.176;2023-08-06T06:53:14;3.43;;;2.30;;
4698;SDS011;33708;49.466;11.176;2023-08-06T06:55:40;7.00;;;2.40;;
4698;SDS011;33708;49.466;11.176;2023-08-06T06:58:05;6.37;;;3.00;;
4698;SDS011;33708;49.466;11.176;2023-08-06T07:00:31;5.10;;;2.50;;
4698;SDS011;33708;49.466;11.176;2023-08-06T07:02:56;6.20;;;3.30;;
4698;SDS011;33708;49.466;11.176;2023-08-06T07:05:22;3.30;;;2.67;;
4698;SDS011;33708;49.466;11.176;2023-08-06T07:07:47;5.80;;;2.43;;
4698;SDS011;33708;49.466;11.176;2023-08-06T07:10:13;5.07;;;3.10;;
4698;SDS011;33708;49.466;11.176;2023-08-06T07:12:38;4.00;;;2.67;;
4698;SDS011;33708;49.466;11.176;2023-08-06T07:15:05;3.43;;;2.17;;
4698;SDS011;33708;49.466;11.176;2023-08-06T07:17:31;3.67;;;2.20;;
4698;SDS011;33708;49.466;11.176;2023-08-06T07:19:57;3.67;;;2.30;;
4698;SDS011;33708;49.466;11.176;2023-08-06T07:22:23;4.30;;;2.57;;
4698;SDS011;33708;49.466;11.176;2023-08-06T07:24:48;7.93;;;2.77;;
4698;SDS011;33708;49.466;11.176;2023-08-06T07:27:14;3.83;;;2.37;;
4698;SDS011;33708;49.466;11.176;2023-08-06T07:29:39;4.40;;;2.50;;
4698;SDS011;33708;49.466;11.176;2023-08-06T07:32:06;3.97;;;2.70;;
4698;SDS011;33708;49.466;11.176;2023-08-06T07:34:32;4.53;;;2.50;;
4698;SDS011;33708;49.466;11.176;2023-08-06T07:36:58;4.43;;;2.37;;
4698;SDS011;33708;49.466;11.176;2023-08-06T07:39:24;3.30;;;2.33;;
4698;SDS011;33708;49.466;11.176;2023-08-06T07:41:49;5.40;;;2.90;;
4698;SDS011;33708;49.466;11.176;2023-08-06T07:44:15;5.80;;;2.60;;
4698;SDS011;33708;49.466;11.176;2023-08-06T07:46:41;6.63;;;2.60;;
4698;SDS011;33708;49.466;11.176;2023-08-06T07:49:06;3.97;;;2.83;;
4698;SDS011;33708;49.466;11.176;2023-08-06T07:51:32;7.20;;;2.57;;
4698;SDS011;33708;49.466;11.176;2023-08-06T07:53:58;3.80;;;2.60;;
4698;SDS011;33708;49.466;11.176;2023-08-06T07:56:23;5.43;;;2.73;;
4698;SDS011;33708;49.466;11.176;2023-08-06T07:58:49;4.57;;;2.40;;
4698;SDS011;33708;49.466;11.176;2023-08-06T08:01:14;3.90;;;2.60;;
4698;SDS011;33708;49.466;11.176;2023-08-06T08:03:40;5.03;;;2.67;;
4698;SDS011;33708;49.466;11.176;2023-08-06T08:06:05;4.63;;;2.43;;
4698;SDS011;33708;49.466;11.176;2023-08-06T08:08:31;3.57;;;2.00;;
4698;SDS011;33708;49.466;11.176;2023-08-06T08:10:57;3.80;;;2.10;;
4698;SDS011;33708;49.466;11.176;2023-08-06T08:13:24;4.70;;;1.80;;
4698;SDS011;33708;49.466;11.176;2023-08-06T08:15:49;4.00;;;2.43;;
4698;SDS011;33708;49.466;11.176;2023-08-06T08:18:21;6.63;;;1.93;;
4698;SDS011;33708;49.466;11.176;2023-08-06T08:20:47;5.97;;;2.20;;
4698;SDS011;33708;49.466;11.176;2023-08-06T08:23:12;4.07;;;2.17;;
4698;SDS011;33708;49.466;11.176;2023-08-06T08:25:38;5.90;;;2.20;;
4698;SDS011;33708;49.466;11.176;2023-08-06T08:28:03;3.77;;;1.80;;
4698;SDS011;33708;49.466;11.176;2023-08-06T08:30:29;7.30;;;2.03;;
4698;SDS011;33708;49.466;11.176;2023-08-06T08:32:54;10.03;;;1.70;;
4698;SDS011;33708;49.466;11.176;2023-08-06T08:35:20;3.10;;;1.30;;
4698;SDS011;33708;49.466;11.176;2023-08-06T08:37:46;2.83;;;1.20;;
4698;SDS011;33708;49.466;11.176;2023-08-06T08:40:11;2.33;;;1.13;;
4698;SDS011;33708;49.466;11.176;2023-08-06T08:42:38;3.60;;;1.30;;
4698;SDS011;33708;49.466;11.176;2023-08-06T08:45:04;2.97;;;0.83;;
4698;SDS011;33708;49.466;11.176;2023-08-06T08:47:36;2.63;;;1.20;;
4698;SDS011;33708;49.466;11.176;2023-08-06T08:50:02;3.17;;;1.10;;
4698;SDS011;33708;49.466;11.176;2023-08-06T08:52:30;2.43;;;0.90;;
4698;SDS011;33708;49.466;11.176;2023-08-06T08:54:57;1.90;;;0.70;;
4698;SDS011;33708;49.466;11.176;2023-08-06T08:57:24;6.30;;;1.10;;
4698;SDS011;33708;49.466;11.176;2023-08-06T08:59:49;1.90;;;0.70;;
4698;SDS011;33708;49.466;11.176;2023-08-06T09:02:15;3.27;;;0.90;;
4698;SDS011;33708;49.466;11.176;2023-08-06T09:04:42;2.27;;;0.70;;
4698;SDS011;33708;49.466;11.176;2023-08-06T09:07:10;3.00;;;0.67;;
4698;SDS011;33708;49.466;11.176;2023-08-06T09:09:38;2.80;;;0.83;;
4698;SDS011;33708;49.466;11.176;2023-08-06T09:12:14;1.77;;;0.60;;
4698;SDS011;33708;49.466;11.176;2023-08-06T09:14:41;1.50;;;0.50;;
4698;SDS011;33708;49.466;11.176;2023-08-06T09:17:07;1.57;;;0.50;;
4698;SDS011;33708;49.466;11.176;2023-08-06T09:19:35;1.67;;;0.60;;
4698;SDS011;33708;49.466;11.176;2023-08-06T09:22:01;6.30;;;0.60;;
4698;SDS011;33708;49.466;11.176;2023-08-06T09:24:27;1.70;;;0.50;;
4698;SDS011;33708;49.466;11.176;2023-08-06T09:26:53;2.00;;;0.60;;
4698;SDS011;33708;49.466;11.176;2023-08-06T09:29:19;2.73;;;0.60;;
4698;SDS011;33708;49.466;11.176;2023-08-06T09:31:46;2.37;;;0.70;;
4698;SDS011;33708;49.466;11.176;2023-08-06T09:34:16;2.07;;;0.43;;
4698;SDS011;33708;49.466;11.176;2023-08-06T09:36:56;1.97;;;0.50;;
4698;SDS011;33708;49.466;11.176;2023-08-06T09:39:28;2.20;;;0.63;;
4698;SDS011;33708;49.466;11.176;2023-08-06T09:41:56;1.43;;;0.40;;
4698;SDS011;33708;49.466;11.176;2023-08-06T09:44:22;2.00;;;0.50;;
4698;SDS011;33708;49.466;11.176;2023-08-06T09:46:57;1.90;;;0.50;;
4698;SDS011;33708;49.466;11.176;2023-08-06T09:51:53;1.50;;;0.50;;
4698;SDS011;33708;49.466;11.176;2023-08-06T09:54:24;1.60;;;0.50;;
4698;SDS011;33708;49.466;11.176;2023-08-06T09:56:52;1.70;;;0.50;;
4698;SDS011;33708;49.466;11.176;2023-08-06T09:59:18;3.00;;;0.70;;
4698;SDS011;33708;49.466;11.176;2023-08-06T10:01:45;1.63;;;0.50;;
4698;SDS011;33708;49.466;11.176;2023-08-06T10:04:11;1.70;;;0.60;;
4698;SDS011;33708;49.466;11.176;2023-08-06T10:06:41;2.70;;;0.60;;
4698;SDS011;33708;49.466;11.176;2023-08-06T10:09:07;2.40;;;0.60;;
4698;SDS011;33708;49.466;11.176;2023-08-06T10:11:34;1.40;;;0.50;;
4698;SDS011;33708;49.466;11.176;2023-08-06T10:14:10;1.70;;;0.50;;
4698;SDS011;33708;49.466;11.176;2023-08-06T10:16:38;1.80;;;0.43;;
4698;SDS011;33708;49.466;11.176;2023-08-06T10:19:05;2.10;;;0.60;;
4698;SDS011;33708;49.466;11.176;2023-08-06T10:21:34;1.93;;;0.63;;
4698;SDS011;33708;49.466;11.176;2023-08-06T10:24:00;1.40;;;0.50;;
4698;SDS011;33708;49.466;11.176;2023-08-06T10:26:29;3.20;;;0.60;;
4698;SDS011;33708;49.466;11.176;2023-08-06T10:28:55;1.63;;;0.50;;
4698;SDS011;33708;49.466;11.176;2023-08-06T10:32:07;1.77;;;0.57;;
4698;SDS011;33708;49.466;11.176;2023-08-06T10:34:20;2.00;;;0.53;;
4698;SDS011;33708;49.466;11.176;2023-08-06T10:36:46;1.67;;;0.63;;
4698;SDS011;33708;49.466;11.176;2023-08-06T10:39:15;2.00;;;0.63;;
4698;SDS011;33708;49.466;11.176;2023-08-06T10:41:42;1.43;;;0.50;;
4698;SDS011;33708;49.466;11.176;2023-08-06T10:44:11;1.53;;;0.50;;
4698;SDS011;33708;49.466;11.176;2023-08-06T10:46:37;1.70;;;0.57;;
4698;SDS011;33708;49.466;11.176;2023-08-06T10:49:03;1.70;;;0.70;;
4698;SDS011;33708;49.466;11.176;2023-08-06T10:51:29;1.33;;;0.40;;
4698;SDS011;33708;49.466;11.176;2023-08-06T10:53:55;1.60;;;0.50;;
4698;SDS011;33708;49.466;11.176;2023-08-06T10:56:23;1.57;;;0.60;;
4698;SDS011;33708;49.466;11.176;2023-08-06T10:58:55;1.50;;;0.50;;
4698;SDS011;33708;49.466;11.176;2023-08-06T11:01:22;3.43;;;0.50;;
4698;SDS011;33708;49.466;11.176;2023-08-06T11:03:49;1.60;;;0.50;;
4698;SDS011;33708;49.466;11.176;2023-08-06T11:06:19;1.97;;;0.60;;
4698;SDS011;33708;49.466;11.176;2023-08-06T11:08:49;1.60;;;0.50;;
4698;SDS011;33708;49.466;11.176;2023-08-06T11:11:18;1.80;;;0.50;;
4698;SDS011;33708;49.466;11.176;2023-08-06T11:13:44;2.37;;;0.63;;
4698;SDS011;33708;49.466;11.176;2023-08-06T11:16:14;1.67;;;0.60;;
4698;SDS011;33708;49.466;11.176;2023-08-06T11:18:41;1.90;;;0.53;;
4698;SDS011;33708;49.466;11.176;2023-08-06T11:21:09;1.40;;;0.43;;
4698;SDS011;33708;49.466;11.176;2023-08-06T11:23:37;1.63;;;0.50;;
4698;SDS011;33708;49.466;11.176;2023-08-06T11:26:03;1.57;;;0.60;;
4698;SDS011;33708;49.466;11.176;2023-08-06T11:28:29;1.40;;;0.40;;
4698;SDS011;33708;49.466;11.176;2023-08-06T11:30:55;1.80;;;0.67;;
4698;SDS011;33708;49.466;11.176;2023-08-06T11:33:22;2.63;;;0.50;;
4698;SDS011;33708;49.466;11.176;2023-08-06T11:35:52;1.90;;;0.70;;
4698;SDS011;33708;49.466;11.176;2023-08-06T11:38:19;2.73;;;0.50;;
4698;SDS011;33708;49.466;11.176;2023-08-06T11:40:45;1.70;;;0.53;;
4698;SDS011;33708;49.466;11.176;2023-08-06T11:43:12;1.30;;;0.40;;
4698;SDS011;33708;49.466;11.176;2023-08-06T11:45:38;1.70;;;0.57;;
4698;SDS011;33708;49.466;11.176;2023-08-06T11:48:04;1.87;;;0.60;;
4698;SDS011;33708;49.466;11.176;2023-08-06T11:50:30;1.73;;;0.50;;
4698;SDS011;33708;49.466;11.176;2023-08-06T11:52:59;1.97;;;0.53;;
4698;SDS011;33708;49.466;11.176;2023-08-06T11:55:25;1.60;;;0.50;;
4698;SDS011;33708;49.466;11.176;2023-08-06T11:57:56;1.60;;;0.50;;
4698;SDS011;33708;49.466;11.176;2023-08-06T12:00:25;1.80;;;0.50;;
4698;SDS011;33708;49.466;11.176;2023-08-06T12:02:51;1.90;;;0.53;;
4698;SDS011;33708;49.466;11.176;2023-08-06T12:05:18;1.60;;;0.50;;
4698;SDS011;33708;49.466;11.176;2023-08-06T12:07:51;2.73;;;0.50;;
4698;SDS011;33708;49.466;11.176;2023-08-06T12:10:18;1.40;;;0.40;;
4698;SDS011;33708;49.466;11.176;2023-08-06T12:12:45;2.00;;;0.50;;
4698;SDS011;33708;49.466;11.176;2023-08-06T12:15:11;1.60;;;0.50;;
4698;SDS011;33708;49.466;11.176;2023-08-06T12:17:37;1.90;;;0.50;;
4698;SDS011;33708;49.466;11.176;2023-08-06T12:20:04;1.40;;;0.40;;
4698;SDS011;33708;49.466;11.176;2023-08-06T12:22:31;1.30;;;0.40;;
4698;SDS011;33708;49.466;11.176;2023-08-06T12:25:03;1.60;;;0.47;;
4698;SDS011;33708;49.466;11.176;2023-08-06T12:27:36;1.70;;;0.43;;
4698;SDS011;33708;49.466;11.176;2023-08-06T12:30:07;1.70;;;0.50;;
4698;SDS011;33708;49.466;11.176;2023-08-06T12:32:33;2.03;;;0.50;;
4698;SDS011;33708;49.466;11.176;2023-08-06T12:34:59;1.80;;;0.60;;
4698;SDS011;33708;49.466;11.176;2023-08-06T12:37:25;3.00;;;0.50;;
4698;SDS011;33708;49.466;11.176;2023-08-06T12:39:51;2.07;;;0.50;;
4698;SDS011;33708;49.466;11.176;2023-08-06T12:42:17;1.40;;;0.50;;
4698;SDS011;33708;49.466;11.176;2023-08-06T12:44:43;1.40;;;0.50;;
4698;SDS011;33708;49.466;11.176;2023-08-06T12:47:09;2.07;;;0.60;;
4698;SDS011;33708;49.466;11.176;2023-08-06T12:49:35;1.60;;;0.60;;
4698;SDS011;33708;49.466;11.176;2023-08-06T12:52:01;1.90;;;0.40;;
4698;SDS011;33708;49.466;11.176;2023-08-06T12:54:27;3.13;;;0.60;;
4698;SDS011;33708;49.466;11.176;2023-08-06T12:56:53;2.37;;;0.60;;
4698;SDS011;33708;49.466;11.176;2023-08-06T12:59:19;5.40;;;0.53;;
4698;SDS011;33708;49.466;11.176;2023-08-06T13:01:45;1.57;;;0.47;;
4698;SDS011;33708;49.466;11.176;2023-08-06T13:04:11;1.67;;;0.50;;
4698;SDS011;33708;49.466;11.176;2023-08-06T13:06:37;1.93;;;0.50;;
4698;SDS011;33708;49.466;11.176;2023-08-06T13:09:08;3.30;;;0.50;;
4698;SDS011;33708;49.466;11.176;2023-08-06T13:11:38;1.77;;;0.60;;
4698;SDS011;33708;49.466;11.176;2023-08-06T13:14:05;1.40;;;0.40;;
4698;SDS011;33708;49.466;11.176;2023-08-06T13:16:32;1.60;;;0.40;;
4698;SDS011;33708;49.466;11.176;2023-08-06T13:18:58;1.40;;;0.50;;
4698;SDS011;33708;49.466;11.176;2023-08-06T13:21:24;1.50;;;0.40;;
4698;SDS011;33708;49.466;11.176;2023-08-06T13:23:56;2.23;;;0.60;;
4698;SDS011;33708;49.466;11.176;2023-08-06T13:26:21;1.67;;;0.50;;
4698;SDS011;33708;49.466;11.176;2023-08-06T13:28:47;1.60;;;0.53;;
4698;SDS011;33708;49.466;11.176;2023-08-06T13:31:14;2.33;;;0.50;;
4698;SDS011;33708;49.466;11.176;2023-08-06T13:33:39;3.10;;;0.50;;
4698;SDS011;33708;49.466;11.176;2023-08-06T13:36:05;1.30;;;0.40;;
4698;SDS011;33708;49.466;11.176;2023-08-06T13:38:31;1.53;;;0.50;;
4698;SDS011;33708;49.466;11.176;2023-08-06T13:40:56;3.33;;;0.50;;
4698;SDS011;33708;49.466;11.176;2023-08-06T13:43:22;3.00;;;0.40;;
4698;SDS011;33708;49.466;11.176;2023-08-06T13:45:49;6.20;;;0.40;;
4698;SDS011;33708;49.466;11.176;2023-08-06T13:48:14;1.47;;;0.50;;
4698;SDS011;33708;49.466;11.176;2023-08-06T13:50:40;1.53;;;0.40;;
4698;SDS011;33708;49.466;11.176;2023-08-06T13:53:06;1.50;;;0.50;;
4698;SDS011;33708;49.466;11.176;2023-08-06T13:55:31;3.60;;;0.50;;
4698;SDS011;33708;49.466;11.176;2023-08-06T13:57:57;1.60;;;0.40;;
4698;SDS011;33708;49.466;11.176;2023-08-06T14:00:23;1.40;;;0.50;;
4698;SDS011;33708;49.466;11.176;2023-08-06T14:02:48;1.60;;;0.50;;
4698;SDS011;33708;49.466;11.176;2023-08-06T14:05:14;1.30;;;0.40;;
4698;SDS011;33708;49.466;11.176;2023-08-06T14:07:39;1.30;;;0.40;;
4698;SDS011;33708;49.466;11.176;2023-08-06T14:10:05;1.40;;;0.40;;
4698;SDS011;33708;49.466;11.176;2023-08-06T14:12:31;2.70;;;0.50;;
4698;SDS011;33708;49.466;11.176;2023-08-06T14:14:57;1.40;;;0.40;;
4698;SDS011;33708;49.466;11.176;2023-08-06T14:17:22;1.30;;;0.40;;
4698;SDS011;33708;49.466;11.176;2023-08-06T14:19:48;1.30;;;0.40;;
4698;SDS011;33708;49.466;11.176;2023-08-06T14:22:14;4.80;;;0.47;;
4698;SDS011;33708;49.466;11.176;2023-08-06T14:24:39;1.40;;;0.50;;
4698;SDS011;33708;49.466;11.176;2023-08-06T14:27:05;1.40;;;0.50;;
4698;SDS011;33708;49.466;11.176;2023-08-06T14:29:31;1.60;;;0.60;;
4698;SDS011;33708;49.466;11.176;2023-08-06T14:31:57;1.40;;;0.40;;
4698;SDS011;33708;49.466;11.176;2023-08-06T14:34:22;1.63;;;0.60;;
4698;SDS011;33708;49.466;11.176;2023-08-06T14:36:48;1.30;;;0.40;;
4698;SDS011;33708;49.466;11.176;2023-08-06T14:39:14;2.00;;;0.60;;
4698;SDS011;33708;49.466;11.176;2023-08-06T14:41:39;1.50;;;0.50;;
4698;SDS011;33708;49.466;11.176;2023-08-06T14:44:05;1.53;;;0.53;;
4698;SDS011;33708;49.466;11.176;2023-08-06T14:46:32;1.30;;;0.40;;
4698;SDS011;33708;49.466;11.176;2023-08-06T14:48:58;1.47;;;0.60;;
4698;SDS011;33708;49.466;11.176;2023-08-06T14:51:23;1.60;;;0.50;;
4698;SDS011;33708;49.466;11.176;2023-08-06T14:53:49;3.20;;;0.50;;
4698;SDS011;33708;49.466;11.176;2023-08-06T14:56:15;1.80;;;0.43;;